Time;durP1;ratioP1;P1;durP2;ratioP2;P2;SDS_P1;SDS_P2;PMS_P1;PMS_P2;Temp;Humidity;BMP_temperature;BMP_pressure;BME280_temperature;BME280_humidity;BME280_pressure;Samples;Min_cycle;Max_cycle;Signal;HPM_P1;HPM_P2
2021/04/02 00:01:38;;;;;;;3.42;3.22;;;22.30;59.80;;;;;;5068191;28;20026;-43
2021/04/02 00:04:03;;;;;;;3.58;3.30;;;22.30;60.50;;;;;;5070722;28;20051;-42
2021/04/02 00:06:29;;;;;;;3.47;3.28;;;22.30;59.80;;;;;;5069757;28;20079;-42
2021/04/02 00:08:54;;;;;;;4.30;3.90;;;22.30;59.90;;;;;;5067129;28;20086;-45
2021/04/02 00:11:20;;;;;;;4.25;3.88;;;22.30;59.90;;;;;;5063177;28;20031;-42
2021/04/02 00:13:47;;;;;;;4.20;3.80;;;22.30;59.90;;;;;;5067560;28;20039;-42
2021/04/02 00:16:17;;;;;;;4.00;3.70;;;22.30;59.90;;;;;;5079029;28;20537;-43
2021/04/02 00:18:42;;;;;;;4.32;3.95;;;22.30;59.90;;;;;;5088964;28;20039;-42
2021/04/02 00:21:09;;;;;;;3.92;3.55;;;22.30;59.90;;;;;;5089563;28;20028;-42
2021/04/02 00:23:35;;;;;;;4.45;4.07;;;22.20;60.00;;;;;;5090416;28;20024;-42
2021/04/02 00:26:01;;;;;;;3.75;3.55;;;22.20;59.90;;;;;;5087551;28;20042;-44
2021/04/02 00:28:26;;;;;;;3.58;3.20;;;22.20;60.00;;;;;;5089744;28;20025;-42
2021/04/02 00:30:55;;;;;;;3.75;3.45;;;22.20;60.00;;;;;;5089884;28;20474;-40
2021/04/02 00:33:22;;;;;;;3.90;3.60;;;22.20;60.10;;;;;;5088409;28;20071;-42
2021/04/02 00:35:48;;;;;;;4.00;3.70;;;22.20;60.00;;;;;;5088467;28;20020;-40
2021/04/02 00:38:14;;;;;;;4.38;4.00;;;22.20;59.90;;;;;;5086959;28;20031;-43
2021/04/02 00:40:42;;;;;;;4.03;3.78;;;22.20;60.10;;;;;;5085199;28;20055;-42
2021/04/02 00:43:09;;;;;;;3.80;3.47;;;22.20;60.00;;;;;;5088754;28;20070;-42
2021/04/02 00:45:34;;;;;;;3.72;3.53;;;22.20;60.80;;;;;;5091148;28;20043;-39
2021/04/02 00:48:01;;;;;;;4.00;3.67;;;22.20;60.00;;;;;;5085400;28;20035;-43
2021/04/02 00:50:28;;;;;;;3.60;3.30;;;22.20;60.10;;;;;;5086811;28;20032;-42
2021/04/02 00:52:54;;;;;;;4.28;3.90;;;22.20;60.20;;;;;;5089664;28;20397;-41
2021/04/02 00:55:19;;;;;;;4.55;3.75;;;22.20;60.20;;;;;;5087969;28;20028;-45
2021/04/02 00:57:45;;;;;;;4.10;3.80;;;22.20;60.20;;;;;;5090774;28;20450;-42
2021/04/02 01:00:11;;;;;;;3.88;3.58;;;22.20;60.30;;;;;;5089258;28;20032;-41
2021/04/02 01:02:37;;;;;;;3.65;3.45;;;22.20;60.20;;;;;;5086934;28;20028;-42
2021/04/02 01:05:28;;;;;;;4.35;3.95;;;22.10;60.20;;;;;;5089920;28;20042;-42
2021/04/02 01:07:58;;;;;;;5.85;4.13;;;22.10;60.20;;;;;;5088736;28;20055;-41
2021/04/02 01:10:24;;;;;;;4.03;3.72;;;22.10;60.30;;;;;;5080019;28;20047;-42
2021/04/02 01:13:02;;;;;;;3.35;3.15;;;22.10;60.40;;;;;;5087848;28;20027;-41
2021/04/02 01:15:42;;;;;;;3.60;3.30;;;22.10;60.30;;;;;;5089005;28;20047;-43
2021/04/02 01:18:12;;;;;;;4.60;4.28;;;22.10;60.30;;;;;;5089667;28;20390;-41
2021/04/02 01:20:38;;;;;;;3.92;3.63;;;22.10;60.40;;;;;;5087651;28;20023;-42
2021/04/02 01:23:06;;;;;;;4.57;4.18;;;22.10;60.40;;;;;;5093551;28;20509;-43
2021/04/02 01:25:41;;;;;;;4.55;4.15;;;22.10;60.50;;;;;;5091251;28;20055;-42
2021/04/02 01:28:12;;;;;;;3.45;3.22;;;22.10;60.40;;;;;;5093472;28;20028;-42
2021/04/02 01:30:38;;;;;;;4.32;4.03;;;22.00;60.50;;;;;;5093262;28;20039;-41
2021/04/02 01:33:04;;;;;;;4.25;3.95;;;22.00;60.50;;;;;;5091651;28;20024;-41
2021/04/02 01:35:33;;;;;;;4.07;3.78;;;22.00;60.50;;;;;;5091925;28;20040;-45
2021/04/02 01:38:16;;;;;;;3.75;3.47;;;22.00;60.50;;;;;;5092703;28;20497;-45
2021/04/02 01:40:44;;;;;;;3.60;3.40;;;22.00;60.50;;;;;;5086888;28;20291;-47
2021/04/02 01:43:15;;;;;;;4.00;3.70;;;22.00;60.60;;;;;;5087514;28;20028;-42
2021/04/02 01:45:40;;;;;;;4.30;3.85;;;22.00;60.60;;;;;;5090766;28;20060;-46
2021/04/02 01:48:06;;;;;;;3.58;3.35;;;22.00;60.60;;;;;;5090913;28;20111;-42
2021/04/02 01:50:33;;;;;;;4.38;3.15;;;22.00;60.70;;;;;;5091466;28;20114;-42
2021/04/02 01:52:59;;;;;;;3.67;3.47;;;22.00;61.50;;;;;;5084123;28;20476;-42
2021/04/02 01:55:24;;;;;;;3.88;3.65;;;22.00;60.70;;;;;;5089432;28;20051;-44
2021/04/02 01:57:50;;;;;;;4.35;3.92;;;22.00;60.70;;;;;;5091899;28;20406;-43
2021/04/02 02:00:22;;;;;;;3.83;3.47;;;22.00;60.70;;;;;;5090828;28;20088;-43
2021/04/02 02:02:48;;;;;;;3.50;3.20;;;22.00;60.70;;;;;;5090789;28;20020;-44
2021/04/02 02:05:13;;;;;;;4.10;3.80;;;22.00;60.70;;;;;;5090479;28;20420;-44
2021/04/02 02:07:42;;;;;;;3.88;3.58;;;21.90;60.70;;;;;;5088717;28;20021;-42
2021/04/02 02:10:09;;;;;;;4.28;3.88;;;22.00;60.70;;;;;;5090685;28;20576;-42
2021/04/02 02:12:35;;;;;;;4.05;3.75;;;21.90;60.60;;;;;;5108594;28;20509;-43
2021/04/02 02:15:02;;;;;;;4.32;4.03;;;22.00;60.70;;;;;;5091313;28;20450;-42
2021/04/02 02:17:28;;;;;;;4.18;3.88;;;22.00;60.70;;;;;;5087884;28;20081;-44
2021/04/02 02:19:53;;;;;;;4.78;4.13;;;21.90;60.70;;;;;;5093404;28;20122;-42
2021/04/02 02:22:19;;;;;;;3.78;3.47;;;22.00;60.70;;;;;;5091616;28;20490;-43
2021/04/02 02:24:45;;;;;;;3.47;3.28;;;22.00;60.70;;;;;;5093518;28;20077;-43
2021/04/02 02:27:11;;;;;;;4.25;3.58;;;22.00;60.70;;;;;;5090097;28;20028;-38
2021/04/02 02:29:37;;;;;;;3.60;3.30;;;22.00;60.80;;;;;;5093094;28;20397;-41
2021/04/02 02:32:04;;;;;;;4.78;3.30;;;21.90;60.70;;;;;;5091546;28;20117;-42
2021/04/02 02:34:30;;;;;;;4.07;3.78;;;21.90;60.70;;;;;;5092944;28;20024;-41
2021/04/02 02:36:56;;;;;;;3.60;3.30;;;21.90;60.70;;;;;;5086373;28;20033;-45
2021/04/02 02:39:21;;;;;;;4.18;3.88;;;21.90;60.70;;;;;;5092258;28;20115;-44
2021/04/02 02:41:47;;;;;;;3.70;3.47;;;21.90;60.70;;;;;;5091645;28;20115;-43
2021/04/02 02:44:13;;;;;;;4.15;3.75;;;21.90;61.50;;;;;;5091058;28;20115;-42
2021/04/02 02:46:38;;;;;;;3.95;3.70;;;21.90;60.70;;;;;;5092617;28;20035;-43
2021/04/02 02:49:17;;;;;;;4.35;4.05;;;21.90;60.80;;;;;;5093443;28;20500;-42
2021/04/02 02:51:43;;;;;;;4.40;4.10;;;21.90;60.90;;;;;;5093298;28;20042;-41
2021/04/02 02:54:14;;;;;;;4.03;3.40;;;21.90;60.80;;;;;;5093427;28;20093;-42
2021/04/02 02:56:41;;;;;;;3.67;3.38;;;21.90;60.80;;;;;;5091102;28;20845;-42
2021/04/02 02:59:08;;;;;;;3.90;3.60;;;21.90;60.80;;;;;;5091404;28;20101;-41
2021/04/02 03:01:34;;;;;;;3.90;3.60;;;21.90;60.80;;;;;;5091346;28;20042;-42
2021/04/02 03:04:00;;;;;;;3.50;3.20;;;21.80;61.50;;;;;;5093340;28;20036;-42
2021/04/02 03:06:25;;;;;;;3.65;3.35;;;21.90;60.70;;;;;;5085617;28;20115;-46
2021/04/02 03:08:52;;;;;;;3.85;3.03;;;21.90;60.80;;;;;;5105757;28;20453;-42
2021/04/02 03:11:19;;;;;;;2.83;2.63;;;21.90;60.70;;;;;;5124898;27;20110;-41
2021/04/02 03:13:44;;;;;;;3.78;3.47;;;21.90;60.70;;;;;;5089229;28;20565;-43
2021/04/02 03:16:10;;;;;;;3.55;3.25;;;21.90;60.70;;;;;;5081103;28;20131;-42
2021/04/02 03:18:36;;;;;;;3.13;2.92;;;21.90;60.70;;;;;;5072705;28;20023;-42
2021/04/02 03:21:02;;;;;;;3.25;3.05;;;21.90;60.70;;;;;;5070558;28;20029;-44
2021/04/02 03:23:27;;;;;;;3.08;2.88;;;21.90;60.70;;;;;;5068345;28;20032;-43
2021/04/02 03:25:53;;;;;;;3.47;3.28;;;21.90;60.70;;;;;;5071253;28;20044;-44
2021/04/02 03:28:19;;;;;;;2.95;2.75;;;21.90;60.60;;;;;;5070326;28;20096;-39
2021/04/02 03:30:45;;;;;;;3.35;3.15;;;21.90;60.60;;;;;;5072226;28;20041;-44
2021/04/02 03:33:24;;;;;;;2.80;2.70;;;21.90;60.60;;;;;;5070247;28;20020;-41
2021/04/02 03:35:53;;;;;;;3.22;2.92;;;21.90;60.60;;;;;;5070896;28;20031;-42
2021/04/02 03:38:18;;;;;;;3.60;3.30;;;21.90;61.30;;;;;;5070445;28;20048;-43
2021/04/02 03:40:44;;;;;;;2.97;2.78;;;21.90;60.60;;;;;;5057553;28;20071;-44
2021/04/02 03:43:10;;;;;;;2.95;2.72;;;21.90;60.40;;;;;;5068201;28;20031;-40
2021/04/02 03:45:37;;;;;;;3.00;2.80;;;21.90;60.40;;;;;;5070451;28;20044;-43
2021/04/02 03:48:03;;;;;;;3.72;2.85;;;21.90;60.30;;;;;;5069523;28;20460;-43
2021/04/02 03:50:32;;;;;;;3.30;3.00;;;21.90;60.50;;;;;;5069369;28;20036;-43
2021/04/02 03:53:08;;;;;;;2.67;2.47;;;21.90;60.60;;;;;;5070394;28;20440;-42
2021/04/02 03:55:36;;;;;;;3.13;2.92;;;21.90;60.50;;;;;;5070795;28;20052;-41
2021/04/02 03:58:02;;;;;;;3.03;2.83;;;21.90;60.40;;;;;;5068309;28;20032;-41
2021/04/02 04:00:31;;;;;;;2.88;2.60;;;21.90;60.50;;;;;;5070568;28;20028;-41
2021/04/02 04:02:57;;;;;;;2.53;2.42;;;21.90;60.50;;;;;;5069590;28;20025;-42
2021/04/02 04:05:23;;;;;;;2.78;2.58;;;21.80;60.50;;;;;;5069625;28;20052;-41
2021/04/02 04:07:48;;;;;;;3.08;2.88;;;21.80;60.50;;;;;;5070963;28;20091;-42
2021/04/02 04:10:15;;;;;;;3.38;3.08;;;21.80;60.40;;;;;;5069724;28;20036;-41
2021/04/02 04:12:42;;;;;;;2.90;2.70;;;21.90;60.50;;;;;;5069954;28;20108;-43
2021/04/02 04:15:09;;;;;;;2.83;2.63;;;21.90;60.60;;;;;;5069972;28;20394;-42
2021/04/02 04:17:35;;;;;;;2.72;2.63;;;21.80;60.50;;;;;;5080517;28;20036;-43
2021/04/02 04:20:00;;;;;;;2.53;2.40;;;21.80;60.50;;;;;;5089849;28;20121;-43
2021/04/02 04:22:26;;;;;;;2.92;2.72;;;21.80;60.60;;;;;;5089870;28;20145;-45
2021/04/02 04:24:51;;;;;;;2.50;2.30;;;21.80;60.80;;;;;;5091112;28;20085;-47
2021/04/02 04:27:17;;;;;;;2.47;2.28;;;21.80;60.70;;;;;;5089717;28;20024;-43
2021/04/02 04:29:44;;;;;;;2.17;2.00;;;21.80;60.60;;;;;;5089831;28;20553;-43
2021/04/02 04:32:13;;;;;;;2.22;2.03;;;21.90;61.10;;;;;;5088967;28;20447;-42
2021/04/02 04:34:39;;;;;;;2.83;2.60;;;21.90;61.30;;;;;;5090190;28;20406;-39
2021/04/02 04:37:05;;;;;;;2.60;2.40;;;21.90;61.00;;;;;;5090430;28;20489;-42
2021/04/02 04:39:30;;;;;;;3.10;2.65;;;22.00;60.90;;;;;;5091079;28;20483;-42
2021/04/02 04:41:56;;;;;;;2.35;2.15;;;22.00;61.10;;;;;;5089548;28;20073;-43
2021/04/02 04:44:21;;;;;;;2.35;2.25;;;22.00;61.00;;;;;;5090238;28;20028;-42
2021/04/02 04:46:47;;;;;;;2.75;2.55;;;21.90;60.90;;;;;;5087689;28;20429;-44
2021/04/02 04:49:13;;;;;;;2.33;2.22;;;21.90;61.20;;;;;;5088914;28;20032;-42
2021/04/02 04:51:38;;;;;;;3.33;2.55;;;21.80;61.50;;;;;;5124418;27;20032;-41
2021/04/02 04:54:04;;;;;;;2.50;2.30;;;21.80;61.40;;;;;;5088695;28;20032;-44
2021/04/02 04:56:31;;;;;;;3.17;2.55;;;21.70;61.40;;;;;;5085927;28;20031;-44
2021/04/02 04:59:01;;;;;;;2.50;2.30;;;21.80;61.30;;;;;;5083630;28;20126;-47
2021/04/02 05:01:30;;;;;;;3.40;3.10;;;21.90;61.30;;;;;;5078039;28;20028;-44
2021/04/02 05:03:56;;;;;;;3.17;2.90;;;21.80;61.20;;;;;;5085031;28;20028;-45
2021/04/02 05:06:21;;;;;;;2.95;2.75;;;21.80;61.60;;;;;;5120755;27;20036;-40
2021/04/02 05:08:47;;;;;;;3.13;2.78;;;21.80;61.40;;;;;;5104318;28;20035;-47
2021/04/02 05:11:18;;;;;;;2.78;2.58;;;21.80;61.10;;;;;;5088008;28;20039;-42
2021/04/02 05:13:44;;;;;;;2.97;2.63;;;21.80;61.20;;;;;;5088836;28;20051;-45
2021/04/02 05:16:10;;;;;;;2.47;2.28;;;21.80;61.50;;;;;;5087752;28;20518;-43
2021/04/02 05:18:37;;;;;;;2.75;2.53;;;21.90;61.50;;;;;;5090372;28;20052;-44
2021/04/02 05:21:03;;;;;;;2.47;2.28;;;21.90;61.00;;;;;;5089268;28;20032;-44
2021/04/02 05:23:28;;;;;;;3.22;3.03;;;21.90;60.70;;;;;;5088511;28;20020;-43
2021/04/02 05:25:54;;;;;;;2.90;2.42;;;22.00;60.90;;;;;;5089628;28;20140;-44
2021/04/02 05:28:20;;;;;;;3.58;2.63;;;22.00;60.70;;;;;;5088097;28;20482;-46
2021/04/02 05:30:46;;;;;;;4.85;2.55;;;22.10;60.30;;;;;;4740109;28;10000636;-45
2021/04/02 05:33:12;;;;;;;2.70;2.45;;;22.00;60.20;;;;;;5086132;28;20059;-41
2021/04/02 05:35:37;;;;;;;3.53;3.22;;;21.90;60.70;;;;;;5076755;28;20020;-45
2021/04/02 05:38:03;;;;;;;3.47;3.17;;;21.80;60.70;;;;;;5075973;28;20036;-41
2021/04/02 05:40:29;;;;;;;2.70;2.55;;;21.80;60.80;;;;;;5075605;28;20066;-42
2021/04/02 05:43:13;;;;;;;3.00;2.80;;;21.80;60.80;;;;;;5075790;28;20039;-44
2021/04/02 05:45:38;;;;;;;3.28;2.97;;;21.90;60.80;;;;;;5073855;28;20075;-44
2021/04/02 05:48:05;;;;;;;3.65;3.35;;;21.90;61.10;;;;;;5076531;28;20075;-44
2021/04/02 05:50:31;;;;;;;6.95;3.55;;;21.90;61.00;;;;;;5079198;28;20032;-44
2021/04/02 05:53:02;;;;;;;3.80;3.45;;;21.80;61.60;;;;;;5078874;28;20082;-41
2021/04/02 05:55:28;;;;;;;7.25;3.42;;;21.70;61.40;;;;;;5079328;28;20043;-41
2021/04/02 05:57:53;;;;;;;6.25;3.40;;;21.70;61.90;;;;;;5079427;28;20379;-41
2021/04/02 06:00:19;;;;;;;4.30;3.15;;;21.70;61.80;;;;;;5079152;28;20054;-42
2021/04/02 06:02:45;;;;;;;4.47;2.75;;;21.70;61.70;;;;;;5076872;28;20032;-42
2021/04/02 06:05:11;;;;;;;3.88;3.15;;;21.80;61.30;;;;;;5077521;28;20158;-44
2021/04/02 06:07:37;;;;;;;5.97;3.33;;;22.00;61.20;;;;;;5080536;28;20028;-37
2021/04/02 06:10:04;;;;;;;7.22;4.10;;;22.10;60.10;;;;;;5081935;28;20592;-39
2021/04/02 06:12:33;;;;;;;9.30;7.72;;;22.10;57.90;;;;;;5078735;28;20572;-32
2021/04/02 06:14:58;;;;;;;11.65;8.82;;;21.80;54.20;;;;;;5081891;28;20051;-47
2021/04/02 06:17:25;;;;;;;12.93;8.68;;;21.40;53.00;;;;;;5080900;28;20044;-44
2021/04/02 06:20:06;;;;;;;17.25;10.15;;;20.90;53.00;;;;;;5083384;28;20055;-44
2021/04/02 06:22:31;;;;;;;13.98;9.20;;;20.50;53.30;;;;;;5081257;28;20024;-45
2021/04/02 06:25:02;;;;;;;13.07;8.10;;;20.50;52.90;;;;;;5083183;28;20040;-43
2021/04/02 06:27:28;;;;;;;26.00;13.05;;;20.40;53.30;;;;;;5083117;28;20464;-43
2021/04/02 06:30:01;;;;;;;23.30;13.20;;;20.40;53.70;;;;;;5083942;28;20375;-43
2021/04/02 06:32:37;;;;;;;17.52;9.55;;;20.20;53.50;;;;;;5097533;28;20046;-41
2021/04/02 06:35:07;;;;;;;15.35;8.60;;;20.00;53.50;;;;;;5082919;28;20028;-46
2021/04/02 06:37:33;;;;;;;18.73;9.93;;;19.80;53.50;;;;;;5082694;28;20032;-42
2021/04/02 06:39:58;;;;;;;16.27;8.35;;;19.80;52.90;;;;;;5083931;28;20028;-44
2021/04/02 06:42:31;;;;;;;17.05;9.02;;;19.70;53.20;;;;;;5083244;28;20622;-43
2021/04/02 06:45:00;;;;;;;11.63;8.95;;;19.60;53.30;;;;;;5082694;28;20032;-45
2021/04/02 06:47:35;;;;;;;14.60;8.50;;;19.40;53.30;;;;;;5082384;28;20066;-43
2021/04/02 06:50:01;;;;;;;12.77;8.50;;;19.40;54.20;;;;;;5083312;28;20016;-42
2021/04/02 06:52:29;;;;;;;12.13;8.23;;;19.50;53.30;;;;;;5081180;28;20035;-43
2021/04/02 06:54:54;;;;;;;15.68;8.20;;;19.40;53.10;;;;;;5081655;28;20024;-42
2021/04/02 06:57:20;;;;;;;13.43;7.90;;;19.20;53.40;;;;;;5082260;28;20533;-42
2021/04/02 06:59:45;;;;;;;15.57;8.93;;;19.20;53.40;;;;;;5082287;28;20028;-47
2021/04/02 07:02:11;;;;;;;15.50;8.68;;;19.10;53.60;;;;;;5080869;28;20028;-45
2021/04/02 07:04:37;;;;;;;14.02;8.38;;;19.20;53.60;;;;;;5081533;28;20664;-44
2021/04/02 07:07:05;;;;;;;11.95;7.32;;;19.10;53.40;;;;;;5082317;28;20047;-43
2021/04/02 07:09:31;;;;;;;11.80;7.15;;;19.00;53.90;;;;;;5082434;28;20032;-39
2021/04/02 07:12:00;;;;;;;12.63;7.65;;;19.10;53.30;;;;;;5064052;28;20386;-46
2021/04/02 07:14:26;;;;;;;12.88;7.88;;;19.00;53.30;;;;;;5082749;28;20058;-48
2021/04/02 07:16:52;;;;;;;12.10;7.38;;;18.90;53.70;;;;;;5082172;28;20079;-32
2021/04/02 07:19:18;;;;;;;12.52;8.00;;;18.80;54.50;;;;;;5082118;28;22601;-40
2021/04/02 07:21:43;;;;;;;11.95;7.05;;;18.80;53.90;;;;;;5080593;28;20032;-49
2021/04/02 07:24:09;;;;;;;12.38;8.18;;;18.80;54.00;;;;;;5082487;28;20517;-46
2021/04/02 07:26:35;;;;;;;10.82;7.47;;;18.80;53.80;;;;;;5081000;28;20039;-40
2021/04/02 07:29:01;;;;;;;10.90;6.80;;;18.70;53.90;;;;;;5081684;28;20031;-42
2021/04/02 07:31:26;;;;;;;11.93;7.68;;;18.70;54.00;;;;;;5081808;28;20038;-44
2021/04/02 07:33:52;;;;;;;13.57;7.22;;;18.80;53.60;;;;;;5115554;27;20036;-44
2021/04/02 07:36:19;;;;;;;10.25;7.20;;;18.90;53.40;;;;;;5082174;28;20024;-42
2021/04/02 07:38:49;;;;;;;9.48;6.28;;;18.90;52.90;;;;;;5082732;28;20058;-47
2021/04/02 07:41:16;;;;;;;8.88;6.65;;;18.90;53.00;;;;;;5078113;28;20036;-49
2021/04/02 07:43:51;;;;;;;7.93;6.10;;;18.80;53.10;;;;;;5082003;28;20020;-47
2021/04/02 07:46:28;;;;;;;10.68;6.00;;;18.90;53.20;;;;;;5081070;28;20067;-36
2021/04/02 07:49:19;;;;;;;10.05;5.90;;;19.00;53.60;;;;;;5081371;28;20020;-41
2021/04/02 07:51:49;;;;;;;8.82;5.50;;;19.60;52.10;;;;;;5077039;28;20036;-36
2021/04/02 07:54:18;;;;;;;8.52;5.78;;;19.90;51.00;;;;;;5081157;28;20057;-46
2021/04/02 07:56:52;;;;;;;12.02;6.13;;;20.20;50.80;;;;;;5080333;28;20063;-41
2021/04/02 07:59:17;;;;;;;10.55;6.13;;;20.20;50.10;;;;;;5081254;28;20022;-45
2021/04/02 08:01:59;;;;;;;9.73;5.72;;;20.40;50.20;;;;;;5079895;28;20047;-44
2021/04/02 08:04:40;;;;;;;7.47;5.15;;;20.50;49.90;;;;;;5080338;28;20036;-39
2021/04/02 08:07:15;;;;;;;6.28;4.40;;;20.40;50.20;;;;;;5080690;28;20058;-43
2021/04/02 08:09:48;;;;;;;5.15;4.50;;;20.60;49.80;;;;;;5082433;28;20074;-42
2021/04/02 08:12:17;;;;;;;7.05;4.60;;;20.60;50.00;;;;;;5080313;28;20907;-42
2021/04/02 08:14:47;;;;;;;6.30;4.70;;;20.40;49.90;;;;;;5080607;28;20024;-46
2021/04/02 08:17:17;;;;;;;7.38;5.25;;;20.30;50.40;;;;;;5079998;28;20485;-37
2021/04/02 08:19:42;;;;;;;7.95;5.00;;;20.30;50.50;;;;;;5080112;28;20040;-34
2021/04/02 08:22:13;;;;;;;7.63;4.93;;;20.20;50.80;;;;;;5080599;28;20055;-40
2021/04/02 08:24:46;;;;;;;7.20;4.57;;;20.00;50.90;;;;;;5081585;28;20091;-39
2021/04/02 08:27:12;;;;;;;6.25;4.65;;;20.00;51.10;;;;;;5081347;28;20521;-42
2021/04/02 08:29:39;;;;;;;6.25;4.10;;;20.00;51.10;;;;;;5081203;28;20028;-43
2021/04/02 08:32:15;;;;;;;4.97;3.40;;;20.10;50.90;;;;;;5079558;28;20090;-47
2021/04/02 08:34:42;;;;;;;5.60;3.45;;;20.20;50.70;;;;;;5081227;28;20039;-46
2021/04/02 08:37:09;;;;;;;3.80;3.00;;;20.30;50.50;;;;;;5081201;28;20036;-36
2021/04/02 08:39:35;;;;;;;5.25;3.20;;;20.40;50.50;;;;;;5081787;28;20020;-44
2021/04/02 08:42:03;;;;;;;4.15;3.03;;;20.50;50.30;;;;;;5080170;28;20028;-44
2021/04/02 08:44:29;;;;;;;5.05;2.92;;;20.50;50.20;;;;;;5081301;28;20419;-46
2021/04/02 08:46:58;;;;;;;5.10;3.63;;;20.50;50.20;;;;;;5077833;28;20061;-44
2021/04/02 08:49:24;;;;;;;4.90;2.97;;;20.50;50.20;;;;;;5071834;28;20040;-45
2021/04/02 08:51:50;;;;;;;5.38;2.80;;;20.50;50.70;;;;;;5069814;28;20043;-55
2021/04/02 08:54:20;;;;;;;5.40;2.78;;;20.30;52.10;;;;;;5063309;28;20028;-55
2021/04/02 08:56:47;;;;;;;5.18;3.20;;;20.30;51.80;;;;;;5068121;28;20115;-55
2021/04/02 08:59:12;;;;;;;4.85;2.80;;;20.30;51.90;;;;;;5068474;28;20039;-56
2021/04/02 09:01:45;;;;;;;3.20;2.50;;;20.20;52.00;;;;;;5067900;28;20042;-55
2021/04/02 09:04:11;;;;;;;5.93;2.45;;;20.30;52.50;;;;;;5069601;28;20035;-54
2021/04/02 09:06:37;;;;;;;2.78;2.10;;;20.40;52.50;;;;;;5069100;28;20047;-48
2021/04/02 09:09:03;;;;;;;4.40;2.20;;;20.50;52.50;;;;;;5069874;28;20127;-40
2021/04/02 09:11:28;;;;;;;2.05;1.85;;;20.50;52.70;;;;;;5067739;28;20141;-40
2021/04/02 09:13:54;;;;;;;4.55;2.60;;;20.60;52.40;;;;;;5066605;28;20034;-41
2021/04/02 09:16:20;;;;;;;2.85;2.00;;;20.70;52.50;;;;;;5068540;28;20051;-43
2021/04/02 09:18:56;;;;;;;3.08;1.80;;;20.80;52.30;;;;;;5069687;28;20264;-53
2021/04/02 09:21:23;;;;;;;1.65;1.50;;;20.80;52.30;;;;;;5065888;28;20054;-39
2021/04/02 09:23:52;;;;;;;4.22;2.20;;;20.90;52.20;;;;;;5067612;28;20032;-39
2021/04/02 09:26:18;;;;;;;3.45;1.92;;;20.90;52.20;;;;;;5069476;28;20066;-54
2021/04/02 09:28:44;;;;;;;2.80;1.60;;;21.00;52.70;;;;;;5069104;28;20808;-46
2021/04/02 09:31:15;;;;;;;2.53;1.75;;;21.00;52.20;;;;;;5065770;28;20032;-40
2021/04/02 09:33:42;;;;;;;1.70;1.60;;;21.10;52.30;;;;;;5067831;28;20032;-38
2021/04/02 09:36:09;;;;;;;1.92;1.73;;;21.10;52.80;;;;;;5067403;28;20085;-37
2021/04/02 09:38:34;;;;;;;2.20;1.58;;;21.10;52.50;;;;;;5065399;28;20194;-41
2021/04/02 09:41:00;;;;;;;3.15;1.85;;;21.10;53.00;;;;;;5064243;28;21245;-46
2021/04/02 09:43:26;;;;;;;5.72;1.98;;;21.20;53.20;;;;;;5068648;28;20482;-40
2021/04/02 09:45:51;;;;;;;2.90;1.30;;;21.20;53.30;;;;;;5072400;28;20055;-39
2021/04/02 09:48:20;;;;;;;3.65;1.58;;;21.20;52.20;;;;;;5073060;28;20040;-39
2021/04/02 09:50:46;;;;;;;2.28;1.80;;;21.10;52.40;;;;;;5070585;28;20028;-44
2021/04/02 09:53:13;;;;;;;3.10;2.03;;;21.10;52.60;;;;;;5069903;28;20093;-35
2021/04/02 09:55:38;;;;;;;2.65;1.52;;;21.00;52.60;;;;;;5072357;28;21568;-36
2021/04/02 09:58:04;;;;;;;2.08;1.50;;;21.00;53.00;;;;;;5073977;28;20148;-42
2021/04/02 10:00:31;;;;;;;3.38;1.50;;;21.10;53.20;;;;;;5073976;28;20048;-45
2021/04/02 10:02:57;;;;;;;2.03;1.38;;;21.20;53.00;;;;;;5068737;28;20058;-42
2021/04/02 10:05:22;;;;;;;2.05;1.40;;;21.20;52.90;;;;;;5073309;28;21073;-40
2021/04/02 10:07:49;;;;;;;1.58;1.40;;;21.20;53.70;;;;;;5072624;28;20071;-39
2021/04/02 10:10:15;;;;;;;2.63;1.30;;;21.20;53.40;;;;;;5072678;28;20043;-36
2021/04/02 10:12:40;;;;;;;2.92;1.42;;;21.20;53.20;;;;;;5070146;28;20024;-46
2021/04/02 10:15:06;;;;;;;2.15;1.20;;;21.20;53.70;;;;;;5073327;28;20051;-37
2021/04/02 10:17:32;;;;;;;1.92;1.13;;;21.20;53.80;;;;;;5073390;28;20089;-43
2021/04/02 10:19:57;;;;;;;2.28;1.10;;;21.20;54.80;;;;;;5072788;28;20028;-40
2021/04/02 10:22:24;;;;;;;2.00;1.23;;;21.10;54.50;;;;;;5069321;28;20659;-40
2021/04/02 10:24:49;;;;;;;3.05;1.65;;;21.20;55.10;;;;;;5072777;28;20040;-42
2021/04/02 10:27:15;;;;;;;1.50;1.40;;;21.10;54.80;;;;;;5072284;28;20894;-50
2021/04/02 10:29:41;;;;;;;2.35;1.20;;;21.20;55.10;;;;;;5070545;28;20067;-53
2021/04/02 10:32:07;;;;;;;2.55;1.35;;;21.20;55.10;;;;;;5067407;28;20147;-52
2021/04/02 10:34:32;;;;;;;1.85;1.02;;;21.30;54.90;;;;;;5070715;28;20036;-53
2021/04/02 10:36:58;;;;;;;2.60;1.17;;;21.30;54.20;;;;;;5070762;28;20024;-51
2021/04/02 10:39:23;;;;;;;1.40;1.08;;;21.40;53.50;;;;;;5072800;28;21492;-54
2021/04/02 10:41:49;;;;;;;1.90;1.25;;;21.50;54.00;;;;;;5068863;28;20075;-48
2021/04/02 10:44:15;;;;;;;2.88;1.50;;;21.40;54.60;;;;;;5070815;28;20039;-48
2021/04/02 10:46:40;;;;;;;1.42;1.10;;;21.50;54.10;;;;;;5071314;28;20059;-50
2021/04/02 10:49:06;;;;;;;1.55;1.13;;;21.60;53.70;;;;;;5072490;28;20031;-49
2021/04/02 10:51:31;;;;;;;2.08;1.20;;;21.60;54.40;;;;;;5068869;28;20486;-51
2021/04/02 10:54:03;;;;;;;1.80;1.00;;;21.70;54.60;;;;;;5069675;28;20082;-41
2021/04/02 10:56:32;;;;;;;1.98;1.15;;;21.60;54.30;;;;;;5071112;28;20043;-49
2021/04/02 10:58:58;;;;;;;1.42;0.93;;;21.70;54.40;;;;;;5071302;28;20038;-32
2021/04/02 11:01:24;;;;;;;2.00;1.27;;;21.70;54.30;;;;;;5068929;28;20103;-45
2021/04/02 11:03:50;;;;;;;2.35;1.20;;;21.70;54.70;;;;;;5071272;28;20049;-51
2021/04/02 11:06:16;;;;;;;3.20;1.38;;;21.70;54.50;;;;;;5072744;28;20062;-43
2021/04/02 11:08:41;;;;;;;2.40;1.23;;;21.70;54.60;;;;;;5070692;28;20413;-37
2021/04/02 11:11:07;;;;;;;4.40;1.20;;;21.80;54.20;;;;;;5066283;28;20040;-39
2021/04/02 11:13:33;;;;;;;3.85;1.00;;;21.90;53.90;;;;;;5068320;28;20024;-50
2021/04/02 11:15:58;;;;;;;1.92;1.45;;;21.90;53.90;;;;;;5070770;28;20162;-46
2021/04/02 11:18:24;;;;;;;2.65;1.00;;;22.00;53.70;;;;;;5072341;28;20039;-49
2021/04/02 11:20:49;;;;;;;1.60;1.30;;;22.00;54.30;;;;;;5073328;28;20115;-50
2021/04/02 11:23:17;;;;;;;2.65;1.30;;;22.00;54.00;;;;;;5079896;28;20068;-47
2021/04/02 11:25:44;;;;;;;1.92;1.00;;;22.10;53.70;;;;;;5081080;28;20174;-51
2021/04/02 11:28:10;;;;;;;5.13;1.00;;;22.10;54.10;;;;;;5080933;28;20028;-41
2021/04/02 11:30:35;;;;;;;1.40;1.00;;;22.10;53.90;;;;;;5082265;28;20046;-53
2021/04/02 11:33:01;;;;;;;1.73;1.45;;;22.10;53.80;;;;;;5078421;28;20070;-48
2021/04/02 11:35:26;;;;;;;1.75;1.40;;;22.00;53.70;;;;;;5080658;28;21338;-45
2021/04/02 11:37:52;;;;;;;2.30;1.17;;;22.10;53.60;;;;;;5080721;28;20113;-39
2021/04/02 11:40:18;;;;;;;2.58;1.30;;;22.10;53.80;;;;;;5081207;28;20032;-52
2021/04/02 11:42:44;;;;;;;3.20;1.58;;;22.10;53.90;;;;;;5078426;28;20115;-39
2021/04/02 11:45:10;;;;;;;4.22;1.50;;;22.10;53.90;;;;;;5079457;28;20051;-41
2021/04/02 11:47:35;;;;;;;3.05;1.40;;;22.10;53.90;;;;;;5080536;28;20042;-42
2021/04/02 11:50:01;;;;;;;2.15;1.60;;;22.10;53.70;;;;;;5081217;28;20020;-35
2021/04/02 11:52:26;;;;;;;3.17;1.40;;;22.10;53.70;;;;;;5077763;28;20040;-38
2021/04/02 11:54:52;;;;;;;1.38;1.10;;;22.20;53.70;;;;;;5081546;28;20036;-36
2021/04/02 11:57:18;;;;;;;2.38;1.38;;;22.10;53.70;;;;;;5080720;28;20032;-37
2021/04/02 11:59:43;;;;;;;1.30;1.20;;;22.10;53.80;;;;;;5080498;28;20032;-41
2021/04/02 12:02:09;;;;;;;1.25;1.00;;;22.10;53.90;;;;;;5076816;28;20028;-45
2021/04/02 12:04:35;;;;;;;1.98;1.30;;;22.10;53.70;;;;;;5080316;28;20032;-42
2021/04/02 12:07:00;;;;;;;1.17;1.00;;;22.10;53.90;;;;;;5079627;28;20044;-46
2021/04/02 12:09:26;;;;;;;2.15;1.30;;;22.10;54.10;;;;;;5080985;28;20035;-38
2021/04/02 12:11:51;;;;;;;1.20;1.08;;;22.10;53.80;;;;;;5077857;28;20032;-35
2021/04/02 12:14:17;;;;;;;2.55;1.25;;;22.10;53.80;;;;;;5079761;28;20109;-42
2021/04/02 12:16:42;;;;;;;1.73;1.20;;;22.10;54.40;;;;;;5080117;28;20048;-39
2021/04/02 12:19:08;;;;;;;1.30;1.20;;;22.10;54.10;;;;;;5080686;28;20563;-37
2021/04/02 12:21:33;;;;;;;1.95;1.02;;;22.00;54.10;;;;;;5078148;28;20035;-43
2021/04/02 12:24:00;;;;;;;1.50;1.13;;;22.10;54.20;;;;;;5079903;28;20467;-36
2021/04/02 12:26:26;;;;;;;2.17;1.20;;;22.10;54.30;;;;;;5080288;28;20040;-45
2021/04/02 12:28:51;;;;;;;1.30;1.10;;;22.10;54.00;;;;;;5079566;28;20082;-48
2021/04/02 12:31:18;;;;;;;1.23;1.10;;;22.10;54.30;;;;;;5077673;28;20036;-51
2021/04/02 12:33:44;;;;;;;1.77;1.23;;;22.20;54.10;;;;;;5081083;28;20028;-50
2021/04/02 12:36:10;;;;;;;1.55;1.08;;;22.20;54.00;;;;;;5079318;28;20401;-51
2021/04/02 12:38:35;;;;;;;1.10;1.00;;;22.20;54.10;;;;;;5079227;28;20446;-51
2021/04/02 12:41:02;;;;;;;2.60;1.30;;;22.20;54.60;;;;;;5077497;28;20032;-52
2021/04/02 12:43:27;;;;;;;1.42;0.80;;;22.20;54.00;;;;;;5079192;28;20039;-48
2021/04/02 12:45:53;;;;;;;1.92;0.60;;;22.20;54.10;;;;;;5079926;28;20044;-49